Time;durP1;ratioP1;P1;durP2;ratioP2;P2;SDS_P1;SDS_P2;PMS_P1;PMS_P2;Temp;Humidity;BMP_temperature;BMP_pressure;BME280_temperature;BME280_humidity;BME280_pressure;Samples;Min_cycle;Max_cycle;Signal;HPM_P1;HPM_P2
2022/09/19 00:01:44;;;;;;;1.87;0.40;;;;;;;7.05;78.09;95156.81;1826274;78;20986;-71
2022/09/19 00:04:22;;;;;;;1.67;0.30;;;;;;;7.08;77.93;95153.73;1826027;78;20994;-70
2022/09/19 00:06:51;;;;;;;0.80;0.40;;;;;;;7.08;78.91;95156.77;1826061;78;21065;-71
2022/09/19 00:09:21;;;;;;;1.53;0.40;;;;;;;7.02;79.26;95145.91;1826097;78;21070;-71
2022/09/19 00:11:50;;;;;;;1.20;0.60;;;;;;;6.92;79.00;95155.64;1825943;78;20986;-71
2022/09/19 00:14:21;;;;;;;2.10;0.40;;;;;;;6.91;79.20;95148.67;1826068;78;20998;-71
2022/09/19 00:16:48;;;;;;;0.60;0.40;;;;;;;6.89;78.82;95147.81;1826236;78;20954;-71
2022/09/19 00:19:18;;;;;;;1.57;0.50;;;;;;;6.91;78.14;95157.85;1830305;78;21018;-71
2022/09/19 00:21:48;;;;;;;1.47;0.50;;;;;;;7.01;78.65;95165.17;1831929;78;20997;-71
2022/09/19 00:27:06;;;;;;;2.40;0.50;;;;;;;7.02;78.48;95162.96;1831760;78;20994;-71
2022/09/19 00:29:36;;;;;;;1.10;0.50;;;;;;;7.01;78.98;95162.55;1832124;78;21037;-71
2022/09/19 00:32:11;;;;;;;0.47;0.37;;;;;;;7.02;79.73;95164.27;1831941;78;21065;-71
2022/09/19 00:34:39;;;;;;;2.40;0.33;;;;;;;7.05;79.30;95171.23;1832083;78;21046;-71
2022/09/19 00:37:06;;;;;;;2.57;0.40;;;;;;;7.11;79.47;95164.62;1832131;78;20974;-71
2022/09/19 00:39:34;;;;;;;1.63;0.30;;;;;;;7.17;80.02;95155.36;1832014;78;21018;-70
2022/09/19 00:42:01;;;;;;;0.80;0.47;;;;;;;7.20;80.04;95154.45;1832156;78;20951;-70
2022/09/19 00:44:34;;;;;;;2.17;0.50;;;;;;;7.18;79.91;95147.89;1832352;78;21041;-71
2022/09/19 00:47:10;;;;;;;1.27;0.60;;;;;;;7.22;80.95;95156.61;1832182;78;21005;-71
2022/09/19 00:49:42;;;;;;;2.60;0.53;;;;;;;7.22;80.86;95156.16;1831744;78;21539;-71
2022/09/19 00:52:15;;;;;;;2.30;0.40;;;;;;;7.30;80.98;95162.17;1832188;78;20962;-71
2022/09/19 00:54:45;;;;;;;0.30;0.30;;;;;;;7.40;81.04;95158.98;1831234;78;21002;-70
2022/09/19 00:57:14;;;;;;;1.03;0.37;;;;;;;7.49;81.06;95155.39;1831938;78;21567;-70
2022/09/19 00:59:46;;;;;;;2.10;0.60;;;;;;;7.50;80.81;95154.03;1831910;78;21507;-71
2022/09/19 01:02:18;;;;;;;0.70;0.30;;;;;;;7.51;80.84;95153.59;1832270;78;20998;-71
2022/09/19 01:04:44;;;;;;;1.73;0.50;;;;;;;7.59;80.99;95159.63;1832122;78;21017;-70
2022/09/19 01:07:28;;;;;;;0.40;0.40;;;;;;;7.61;81.29;95149.97;1831869;78;21010;-70
2022/09/19 01:10:28;;;;;;;1.47;0.40;;;;;;;7.67;80.88;95148.56;1817550;78;21002;-71
2022/09/19 01:13:20;;;;;;;2.23;0.40;;;;;;;7.65;81.32;95140.28;1801095;78;21036;-71
2022/09/19 01:15:58;;;;;;;0.50;0.40;;;;;;;7.62;81.00;95129.83;1832073;78;20963;-71
2022/09/19 01:18:30;;;;;;;3.27;0.40;;;;;;;7.62;81.88;95126.75;1828320;78;21030;-71
2022/09/19 01:21:38;;;;;;;0.60;0.47;;;;;;;7.65;82.53;95131.09;1792803;79;21050;-71
2022/09/19 01:24:30;;;;;;;0.57;0.37;;;;;;;7.71;81.91;95133.19;1821534;79;20975;-71
2022/09/19 01:27:25;;;;;;;1.43;0.50;;;;;;;7.80;81.88;95131.72;1820483;79;21527;-71
2022/09/19 01:30:08;;;;;;;0.40;0.40;;;;;;;7.86;81.16;95122.91;1821590;79;21014;-71
2022/09/19 01:32:51;;;;;;;4.40;0.50;;;;;;;7.90;81.36;95136.84;1820608;79;21085;-71
2022/09/19 01:35:26;;;;;;;1.47;0.40;;;;;;;7.94;81.21;95135.91;1799371;79;20967;-70
2022/09/19 01:38:00;;;;;;;1.80;1.47;;;;;;;7.98;80.87;95131.02;1821379;79;21042;-71
2022/09/19 01:40:29;;;;;;;3.37;0.83;;;;;;;8.00;81.05;95131.86;1794069;79;20975;-70
2022/09/19 01:42:58;;;;;;;2.70;0.83;;;;;;;8.00;80.40;95134.03;1820958;79;21488;-71
2022/09/19 01:45:31;;;;;;;0.97;0.57;;;;;;;7.95;80.78;95133.24;1821441;79;21030;-70
2022/09/19 01:48:19;;;;;;;0.67;0.60;;;;;;;7.92;80.40;95129.81;1821474;79;20943;-71
2022/09/19 01:51:10;;;;;;;0.63;0.50;;;;;;;7.86;80.59;95136.03;1821534;79;20959;-70
2022/09/19 01:54:02;;;;;;;0.80;0.50;;;;;;;7.80;80.58;95139.59;1820695;79;21488;-71
2022/09/19 01:56:47;;;;;;;1.40;0.90;;;;;;;7.79;80.60;95143.58;1819990;79;21468;-71
2022/09/19 01:59:42;;;;;;;0.50;0.50;;;;;;;7.77;80.77;95142.73;1821411;79;20970;-71
2022/09/19 02:02:33;;;;;;;0.60;0.60;;;;;;;7.75;80.34;95143.19;1821466;79;21006;-71
2022/09/19 02:05:13;;;;;;;0.70;0.60;;;;;;;7.70;81.55;95139.77;1821576;79;20951;-71
2022/09/19 02:08:15;;;;;;;1.43;0.80;;;;;;;7.64;81.29;95145.98;1792503;79;21002;-71
2022/09/19 02:10:48;;;;;;;1.27;0.80;;;;;;;7.62;81.18;95139.88;1777131;79;20998;-70
2022/09/19 02:13:16;;;;;;;;;;;;;;;7.61;81.44;95134.22;1824209;79;21053;-71
2022/09/19 02:15:50;;;;;;;1.00;0.60;;;;;;;7.61;81.17;95135.53;1820813;79;20109;-71
2022/09/19 02:18:30;;;;;;;2.80;0.90;;;;;;;7.58;81.05;95140.80;1822942;78;20986;-71
2022/09/19 02:21:02;;;;;;;0.63;0.43;;;;;;;7.53;81.64;95140.89;1802322;78;21006;-71
2022/09/19 02:23:33;;;;;;;;;;;;;;;7.51;81.26;95142.67;1834395;78;20998;-71
2022/09/19 02:26:03;;;;;;;0.80;0.60;;;;;;;7.50;81.90;95132.17;1831954;78;21160;-70
2022/09/19 02:28:41;;;;;;;2.63;1.40;;;;;;;7.45;82.41;95131.37;1800895;78;20998;-70
2022/09/19 02:31:12;;;;;;;2.97;0.40;;;;;;;7.37;83.03;95128.86;1831654;78;21077;-71
2022/09/19 02:33:43;;;;;;;1.10;0.50;;;;;;;7.38;82.38;95121.39;1831969;78;21472;-71
2022/09/19 02:36:32;;;;;;;3.30;0.60;;;;;;;7.33;82.00;95117.55;1831988;78;21010;-71
2022/09/19 02:39:13;;;;;;;0.70;0.50;;;;;;;7.34;82.35;95119.72;1831988;78;20993;-70
2022/09/19 02:41:52;;;;;;;3.02;0.70;;;;;;;7.33;82.40;95130.67;1811067;78;21081;-70
2022/09/19 02:44:35;;;;;;;0.50;0.30;;;;;;;7.29;82.52;95124.16;1776831;78;20963;-70
2022/09/19 02:47:18;;;;;;;0.60;0.30;;;;;;;7.24;82.27;95131.23;1802460;78;21009;-71
2022/09/19 02:49:52;;;;;;;0.47;0.40;;;;;;;7.14;82.54;95137.03;1831046;78;20970;-70
2022/09/19 02:52:28;;;;;;;0.87;0.50;;;;;;;7.08;82.91;95131.42;1832010;78;21002;-70
2022/09/19 02:55:02;;;;;;;1.03;0.33;;;;;;;7.10;83.44;95140.12;1830916;78;21033;-70
2022/09/19 02:57:32;;;;;;;0.80;0.73;;;;;;;7.15;83.97;95134.38;1823074;78;21531;-70
2022/09/19 03:00:03;;;;;;;1.30;0.80;;;;;;;7.21;83.56;95139.15;1802470;78;20998;-70
2022/09/19 03:02:39;;;;;;;1.27;0.68;;;;;;;7.20;83.50;95135.63;1832490;78;21054;-71
2022/09/19 03:05:18;;;;;;;0.70;0.70;;;;;;;7.22;83.46;95139.11;1832120;78;21006;-70
2022/09/19 03:07:52;;;;;;;3.13;0.60;;;;;;;7.18;83.03;95141.33;1831919;78;21476;-70
2022/09/19 03:10:29;;;;;;;1.17;0.70;;;;;;;7.22;83.20;95139.11;1801291;78;20966;-71
2022/09/19 03:13:05;;;;;;;2.17;1.00;;;;;;;7.21;83.18;95133.90;1831036;78;20982;-70
2022/09/19 03:15:52;;;;;;;2.10;0.80;;;;;;;7.19;83.15;95135.67;1832082;78;20990;-70
2022/09/19 03:18:22;;;;;;;2.20;0.70;;;;;;;7.17;83.11;95140.92;1831127;78;21026;-70
2022/09/19 03:20:55;;;;;;;0.87;0.87;;;;;;;7.20;83.26;95134.31;1831875;78;21005;-70
2022/09/19 03:23:26;;;;;;;;;;;;;;;7.20;83.36;95130.38;1834661;78;20994;-70
2022/09/19 03:25:53;;;;;;;0.33;0.33;;;;;;;7.22;83.15;95136.94;1832018;78;20105;-71
2022/09/19 03:28:21;;;;;;;1.73;0.70;;;;;;;7.24;83.59;95132.54;1831426;78;21094;-71
2022/09/19 03:30:49;;;;;;;1.77;0.60;;;;;;;7.21;83.21;95130.83;1832048;78;20965;-71
2022/09/19 03:33:17;;;;;;;1.73;0.50;;;;;;;7.30;83.48;95128.05;1831948;78;21002;-70
2022/09/19 03:35:47;;;;;;;2.07;0.53;;;;;;;7.40;83.90;95126.63;1831743;78;21349;-70
2022/09/19 03:38:13;;;;;;;1.73;0.90;;;;;;;7.41;83.53;95128.36;1831612;78;21528;-70
2022/09/19 03:40:41;;;;;;;2.40;0.30;;;;;;;7.40;82.98;95134.51;1831900;78;20991;-70
2022/09/19 03:43:08;;;;;;;1.10;0.40;;;;;;;7.42;83.24;95131.42;1831785;78;20966;-70
2022/09/19 03:45:35;;;;;;;10.37;4.00;;;;;;;7.44;83.05;95140.15;1831714;78;21030;-71
2022/09/19 03:48:02;;;;;;;0.50;0.30;;;;;;;7.48;82.31;95137.44;1831638;78;21523;-71
2022/09/19 03:50:29;;;;;;;0.63;0.40;;;;;;;7.65;80.38;95138.52;1832195;78;21002;-71
2022/09/19 03:53:08;;;;;;;0.67;0.50;;;;;;;7.80;78.88;95142.22;1831733;78;21038;-71
2022/09/19 03:55:41;;;;;;;1.20;0.90;;;;;;;7.96;77.90;95140.67;1831785;78;20997;-71
2022/09/19 03:58:10;;;;;;;146.43;88.43;;;;;;;8.01;79.30;95139.73;1831461;78;21113;-71
2022/09/19 04:00:37;;;;;;;9.33;6.07;;;;;;;8.05;78.28;95148.88;1831853;78;21022;-71
2022/09/19 04:03:04;;;;;;;9.83;5.47;;;;;;;8.14;78.08;95152.22;1831795;78;20950;-71
2022/09/19 04:05:36;;;;;;;1.30;0.80;;;;;;;8.19;76.44;95158.27;1831904;78;21001;-71
2022/09/19 04:08:01;;;;;;;3.13;1.67;;;;;;;8.33;76.46;95173.80;1830574;78;20998;-71
2022/09/19 04:10:28;;;;;;;5.03;4.53;;;;;;;8.37;76.02;95166.75;1831901;78;20982;-71
2022/09/19 04:12:56;;;;;;;3.47;3.13;;;;;;;8.40;77.16;95168.03;1831941;78;20998;-77
2022/09/19 04:15:23;;;;;;;4.37;1.40;;;;;;;8.39;77.81;95179.00;1831902;78;20973;-80
2022/09/19 04:17:50;;;;;;;49.30;22.07;;;;;;;8.39;78.46;95172.82;1831580;78;21018;-80
2022/09/19 04:20:17;;;;;;;2.25;1.37;;;;;;;8.40;77.79;95180.73;1827172;78;21030;-80
2022/09/19 04:22:46;;;;;;;117.13;76.17;;;;;;;8.43;77.56;95170.16;1820270;78;21034;-80
2022/09/19 04:25:15;;;;;;;5.10;3.22;;;;;;;8.47;77.97;95175.35;1825350;78;21018;-79
2022/09/19 04:28:05;;;;;;;180.15;101.60;;;;;;;8.49;77.43;95176.20;1825483;78;21476;-80
2022/09/19 04:30:30;;;;;;;6.67;4.33;;;;;;;8.43;77.59;95162.27;1823709;78;20979;-79
2022/09/19 04:33:00;;;;;;;0.85;0.42;;;;;;;8.46;77.65;95162.66;1826266;78;21025;-80
2022/09/19 04:35:27;;;;;;;9.80;6.20;;;;;;;8.45;77.36;95176.71;1793008;78;20951;-80
2022/09/19 04:37:55;;;;;;;7.05;5.75;;;;;;;8.45;77.61;95169.69;1825974;78;21078;-80
2022/09/19 04:40:22;;;;;;;2.33;1.77;;;;;;;8.50;77.66;95174.01;1826065;78;20986;-80
2022/09/19 04:42:49;;;;;;;33.67;30.27;;;;;;;8.56;77.38;95179.14;1825918;78;21002;-80
2022/09/19 04:45:20;;;;;;;20.10;18.20;;;;;;;8.58;77.92;95176.91;1826084;78;20969;-80
2022/09/19 04:47:47;;;;;;;5.05;4.65;;;;;;;8.61;78.36;95173.36;1823668;78;21004;-80
2022/09/19 04:50:15;;;;;;;1.22;1.05;;;;;;;8.64;78.62;95187.34;1826106;78;20974;-80
2022/09/19 04:52:43;;;;;;;1.95;0.40;;;;;;;8.67;77.87;95182.47;1823154;78;21090;-80
2022/09/19 04:55:10;;;;;;;1.52;1.42;;;;;;;8.64;76.55;95184.71;1826162;78;20986;-80
2022/09/19 04:57:36;;;;;;;1.20;0.93;;;;;;;8.62;77.14;95189.13;1825886;78;21046;-81
2022/09/19 05:00:10;;;;;;;1.60;1.50;;;;;;;8.60;76.98;95182.16;1825074;78;21452;-74
2022/09/19 05:02:38;;;;;;;0.47;0.37;;;;;;;8.58;77.55;95175.59;1792371;78;20990;-75
2022/09/19 05:05:07;;;;;;;0.90;0.90;;;;;;;8.61;77.44;95183.87;1825280;78;20978;-76
2022/09/19 05:07:33;;;;;;;0.65;0.30;;;;;;;8.57;77.08;95191.42;1825878;78;21069;-74
2022/09/19 05:10:03;;;;;;;0.33;0.33;;;;;;;8.56;76.88;95188.35;1825111;78;21124;-77
2022/09/19 05:12:32;;;;;;;0.45;0.40;;;;;;;8.53;77.39;95190.59;1825052;78;21013;-72
2022/09/19 05:14:58;;;;;;;0.55;0.50;;;;;;;8.53;77.45;95185.33;1792593;78;21010;-76
2022/09/19 05:17:25;;;;;;;0.30;0.30;;;;;;;8.53;77.42;95186.64;1825648;78;20982;-72
2022/09/19 05:19:53;;;;;;;0.80;0.40;;;;;;;8.53;76.76;95181.38;1828371;78;21014;-80
2022/09/19 05:22:20;;;;;;;1.05;0.30;;;;;;;8.59;77.29;95186.55;1831631;78;21052;-78
2022/09/19 05:24:47;;;;;;;0.35;0.30;;;;;;;8.61;76.90;95190.00;1831820;78;21029;-80
2022/09/19 05:27:14;;;;;;;1.42;0.40;;;;;;;8.64;76.12;95184.71;1831701;78;21041;-76
2022/09/19 05:29:41;;;;;;;1.00;0.80;;;;;;;8.69;76.67;95189.00;1831553;78;21487;-80
2022/09/19 05:32:07;;;;;;;0.42;0.40;;;;;;;8.80;77.00;95180.48;1832377;78;21006;-78
2022/09/19 05:34:40;;;;;;;0.68;0.50;;;;;;;8.89;76.71;95185.55;1832036;78;21032;-78
2022/09/19 05:37:09;;;;;;;1.37;0.80;;;;;;;8.96;76.89;95188.95;1831492;78;20950;-75
2022/09/19 05:39:53;;;;;;;1.62;1.52;;;;;;;9.07;76.69;95182.59;1831849;78;21022;-75
2022/09/19 05:42:28;;;;;;;1.17;0.90;;;;;;;9.13;76.14;95184.23;1781535;78;21050;-73
2022/09/19 05:44:55;;;;;;;1.75;1.65;;;;;;;9.24;76.43;95165.59;1831979;78;21049;-78
2022/09/19 05:47:21;;;;;;;1.87;0.72;;;;;;;9.30;75.44;95186.55;1831672;78;21017;-73
2022/09/19 05:49:48;;;;;;;0.57;0.40;;;;;;;9.22;73.17;95176.59;1832023;78;20982;-78
2022/09/19 05:54:59;;;;;;;0.80;0.60;;;;;;;9.14;73.19;95177.20;1831988;78;21495;-74
2022/09/19 05:57:36;;;;;;;0.40;0.40;;;;;;;9.09;73.96;95183.41;1830586;78;20997;-69
2022/09/19 06:00:06;;;;;;;0.40;0.30;;;;;;;9.09;74.57;95187.36;1831214;78;21064;-73
2022/09/19 06:02:34;;;;;;;0.53;0.30;;;;;;;9.08;73.04;95186.95;1830032;78;21041;-72
2022/09/19 06:05:01;;;;;;;2.42;0.45;;;;;;;9.07;72.56;95188.28;1831971;78;20968;-75
2022/09/19 06:07:31;;;;;;;1.92;1.75;;;;;;;9.10;73.27;95187.80;1831710;78;20982;-73
2022/09/19 06:10:00;;;;;;;0.50;0.50;;;;;;;9.11;71.52;95188.66;1799689;78;21574;-69
2022/09/19 06:12:27;;;;;;;0.30;0.25;;;;;;;9.10;72.20;95181.22;1830597;78;21072;-77
2022/09/19 06:14:54;;;;;;;1.85;0.40;;;;;;;9.10;71.97;95182.53;1831354;78;21029;-71
2022/09/19 06:17:22;;;;;;;0.35;0.30;;;;;;;9.07;71.87;95186.55;1831632;78;21037;-81
2022/09/19 06:19:49;;;;;;;108.80;41.53;;;;;;;9.05;73.10;95180.89;1823356;78;21005;-71
2022/09/19 06:22:23;;;;;;;18.15;9.90;;;;;;;8.97;71.44;95186.30;1809379;79;21460;-73
2022/09/19 06:24:51;;;;;;;4.17;2.12;;;;;;;8.93;72.31;95187.70;1809803;79;21034;-77
2022/09/19 06:27:20;;;;;;;169.87;67.08;;;;;;;8.87;72.40;95192.64;1810008;79;21499;-78
2022/09/19 06:29:48;;;;;;;5.47;4.42;;;;;;;8.87;72.94;95179.48;1810238;79;20962;-75
2022/09/19 06:32:25;;;;;;;1.20;0.40;;;;;;;8.88;71.40;95179.44;1809941;79;21002;-73
2022/09/19 06:35:08;;;;;;;0.85;0.55;;;;;;;8.87;71.14;95176.85;1800594;79;20998;-80
2022/09/19 06:37:35;;;;;;;4.00;3.70;;;;;;;8.91;71.51;95175.87;1810014;79;20970;-80
2022/09/19 06:40:04;;;;;;;1.35;1.10;;;;;;;8.99;72.35;95162.12;1810212;79;21481;-73
2022/09/19 06:42:42;;;;;;;2.50;2.30;;;;;;;9.20;72.82;95162.16;1810220;79;21082;-75
2022/09/19 06:45:25;;;;;;;9.25;8.40;;;;;;;9.42;72.62;95158.62;1810691;79;21073;-79
2022/09/19 06:48:04;;;;;;;2.72;2.52;;;;;;;9.56;71.87;95158.34;1785571;80;21010;-77
2022/09/19 06:50:38;;;;;;;3.62;3.27;;;;;;;9.74;71.43;95153.97;1807997;79;21483;-77
2022/09/19 06:53:09;;;;;;;1.40;1.30;;;;;;;9.91;71.60;95159.33;1810075;79;20998;-74
2022/09/19 06:55:36;;;;;;;1.72;1.30;;;;;;;10.06;71.71;95162.06;1810128;79;20942;-81
2022/09/19 06:58:06;;;;;;;4.80;4.37;;;;;;;10.18;71.61;95157.82;1809413;79;21017;-79
2022/09/19 07:00:36;;;;;;;2.52;2.22;;;;;;;10.30;70.55;95157.98;1810251;79;20970;-81
2022/09/19 07:03:16;;;;;;;1.10;1.00;;;;;;;10.39;70.66;95162.59;1809398;79;21044;-72
2022/09/19 07:05:45;;;;;;;0.55;0.37;;;;;;;10.39;70.14;95159.09;1809104;79;21080;-73
2022/09/19 07:08:24;;;;;;;0.30;0.30;;;;;;;10.28;69.43;95180.45;1809685;79;21014;-69
2022/09/19 07:10:57;;;;;;;1.20;0.60;;;;;;;10.17;68.27;95184.61;1810136;79;21081;-69
2022/09/19 07:13:24;;;;;;;1.27;1.17;;;;;;;10.09;68.64;95186.56;1809812;79;21006;-81
2022/09/19 07:15:53;;;;;;;0.68;0.55;;;;;;;10.07;69.39;95183.09;1809445;79;21041;-75
2022/09/19 07:18:20;;;;;;;0.40;0.40;;;;;;;10.11;70.07;95180.81;1808874;79;21527;-77
2022/09/19 07:20:48;;;;;;;1.12;0.50;;;;;;;10.25;69.73;95192.34;1808663;79;21014;-75
2022/09/19 07:23:18;;;;;;;1.17;0.30;;;;;;;10.30;69.33;95185.22;1808692;79;21602;-75
2022/09/19 07:25:56;;;;;;;1.37;1.27;;;;;;;10.36;67.93;95193.00;1808053;79;21010;-74
2022/09/19 07:28:24;;;;;;;3.47;2.42;;;;;;;10.42;67.19;95191.11;1809400;79;20994;-79
2022/09/19 07:30:52;;;;;;;1.47;1.12;;;;;;;10.49;67.47;95192.24;1809998;79;20950;-84
2022/09/19 07:33:21;;;;;;;1.50;1.40;;;;;;;10.61;67.15;95196.36;1809984;79;21040;-83
2022/09/19 07:35:48;;;;;;;0.50;0.50;;;;;;;10.73;68.16;95197.34;1810100;79;21013;-76
2022/09/19 07:38:18;;;;;;;0.70;0.60;;;;;;;10.84;68.11;95197.09;1809235;79;21018;-72
2022/09/19 07:40:49;;;;;;;1.40;0.72;;;;;;;10.94;67.08;95193.76;1809362;79;21150;-74
2022/09/19 07:43:27;;;;;;;2.00;0.70;;;;;;;11.03;67.57;95197.45;1809694;79;20986;-76
2022/09/19 07:45:55;;;;;;;1.00;0.75;;;;;;;11.07;67.04;95192.52;1806559;79;20998;-75
2022/09/19 07:48:30;;;;;;;2.60;1.62;;;;;;;11.11;67.54;95192.82;1809140;79;21037;-68
2022/09/19 07:51:01;;;;;;;0.60;0.50;;;;;;;11.14;67.88;95201.14;1794842;79;21423;-71
2022/09/19 07:53:29;;;;;;;1.00;0.88;;;;;;;11.12;66.97;95202.50;1808800;79;21049;-68
2022/09/19 07:55:57;;;;;;;2.15;1.10;;;;;;;11.11;67.57;95202.06;1810234;79;20977;-70
2022/09/19 07:58:27;;;;;;;1.82;0.80;;;;;;;11.08;66.41;95198.66;1809114;79;21052;-68
2022/09/19 08:01:00;;;;;;;1.07;0.60;;;;;;;11.05;67.12;95200.46;1810441;79;21471;-67
2022/09/19 08:03:46;;;;;;;1.52;0.47;;;;;;;11.08;66.97;95194.69;1809635;79;21113;-67
2022/09/19 08:06:15;;;;;;;2.45;0.30;;;;;;;11.14;67.27;95201.14;1809781;79;21048;-67
2022/09/19 08:08:42;;;;;;;3.50;0.50;;;;;;;11.19;67.43;95193.51;1809670;79;21025;-67
2022/09/19 08:11:14;;;;;;;1.52;0.40;;;;;;;11.29;67.34;95199.41;1809704;79;21514;-71
2022/09/19 08:13:42;;;;;;;0.55;0.40;;;;;;;11.35;67.19;95203.19;1809518;79;21052;-74
2022/09/19 08:16:08;;;;;;;0.98;0.65;;;;;;;11.38;66.61;95212.80;1809711;79;20955;-71
2022/09/19 08:18:36;;;;;;;1.72;0.90;;;;;;;11.42;66.42;95209.17;1809818;79;21034;-74
2022/09/19 08:21:03;;;;;;;0.72;0.42;;;;;;;11.42;66.28;95199.92;1809241;79;21030;-76
2022/09/19 08:23:30;;;;;;;0.33;0.30;;;;;;;11.43;66.69;95206.93;1809090;79;21045;-72
2022/09/19 08:26:02;;;;;;;2.15;1.00;;;;;;;11.45;66.56;95202.47;1809031;79;21052;-72
2022/09/19 08:28:30;;;;;;;1.57;0.70;;;;;;;11.46;65.98;95205.09;1809465;79;21033;-78
2022/09/19 08:31:01;;;;;;;1.67;0.60;;;;;;;11.51;66.02;95204.93;1809352;79;21526;-79
2022/09/19 08:33:30;;;;;;;;;;;;;;;11.56;66.53;95204.34;1812710;79;21117;-75
2022/09/19 08:36:01;;;;;;;0.30;0.30;;;;;;;11.67;66.16;95200.09;1809609;79;20388;-79
2022/09/19 08:38:29;;;;;;;0.50;0.35;;;;;;;11.80;66.59;95201.92;1810173;79;21029;-76
2022/09/19 08:41:45;;;;;;;1.82;0.40;;;;;;;11.96;66.37;95196.59;1809686;79;21049;-73
2022/09/19 08:44:39;;;;;;;0.30;0.30;;;;;;;12.08;65.66;95194.91;1809644;79;21054;-74
2022/09/19 08:47:17;;;;;;;1.30;0.37;;;;;;;12.21;65.20;95183.95;1808593;79;21010;-75
2022/09/19 08:50:06;;;;;;;0.40;0.40;;;;;;;12.30;64.73;95175.73;1810149;79;21010;-74
2022/09/19 08:52:48;;;;;;;0.40;0.40;;;;;;;12.36;63.73;95174.20;1810201;79;20967;-68
2022/09/19 08:55:30;;;;;;;0.47;0.47;;;;;;;12.37;63.75;95182.99;1810184;79;21014;-71
2022/09/19 08:58:02;;;;;;;2.58;1.55;;;;;;;12.25;59.61;95190.42;1809723;79;21113;-67
2022/09/19 09:00:40;;;;;;;2.08;1.10;;;;;;;12.23;61.98;95196.67;1809968;79;21014;-69
2022/09/19 09:03:14;;;;;;;0.50;0.40;;;;;;;12.22;63.38;95209.47;1810290;79;21537;-70
2022/09/19 09:06:06;;;;;;;1.47;0.60;;;;;;;12.16;63.95;95213.64;1809361;79;21451;-69
2022/09/19 09:08:56;;;;;;;1.40;0.40;;;;;;;12.09;65.41;95224.39;1808746;79;21006;-68
2022/09/19 09:11:59;;;;;;;4.27;0.70;;;;;;;11.93;64.68;95225.78;1807710;79;21151;-68
2022/09/19 09:14:58;;;;;;;0.57;0.40;;;;;;;11.82;64.83;95223.42;1808670;79;21097;-69
2022/09/19 09:17:53;;;;;;;3.00;0.90;;;;;;;11.73;65.09;95229.44;1809181;79;21112;-69
2022/09/19 09:20:59;;;;;;;2.62;1.07;;;;;;;11.67;64.36;95220.77;1810337;79;21045;-69
2022/09/19 09:23:34;;;;;;;1.57;1.12;;;;;;;11.68;64.23;95221.17;1814606;79;21136;-70
2022/09/19 09:26:07;;;;;;;2.75;0.93;;;;;;;11.71;63.55;95220.21;1813433;79;21017;-69
2022/09/19 09:29:14;;;;;;;1.15;0.70;;;;;;;11.73;62.72;95214.44;1814660;79;21053;-70
2022/09/19 09:31:51;;;;;;;2.83;1.57;;;;;;;11.75;62.83;95208.66;1815685;79;21072;-69
2022/09/19 09:34:56;;;;;;;1.67;0.88;;;;;;;11.73;61.57;95219.72;1816062;79;20993;-69
2022/09/19 09:37:39;;;;;;;0.90;0.62;;;;;;;11.71;61.73;95221.53;1816345;79;20982;-69
2022/09/19 09:43:20;;;;;;;1.12;0.95;;;;;;;11.61;62.52;95231.50;1816348;79;20090;-69
2022/09/19 09:45:49;;;;;;;1.60;1.00;;;;;;;11.56;62.94;95234.73;1815774;79;21379;-69
2022/09/19 09:48:38;;;;;;;1.15;0.78;;;;;;;11.53;62.32;95234.82;1816093;79;21471;-69
2022/09/19 09:51:18;;;;;;;3.02;0.80;;;;;;;11.49;63.30;95234.52;1816394;79;21475;-69
2022/09/19 09:57:11;;;;;;;1.37;0.30;;;;;;;11.44;61.87;95237.70;1815939;79;20978;-70
2022/09/19 10:05:45;;;;;;;0.70;0.70;;;;;;;11.57;63.51;95233.84;1815320;79;21018;-67
2022/09/19 10:08:28;;;;;;;1.45;0.47;;;;;;;11.61;60.46;95230.64;1814592;79;22264;-67
2022/09/19 10:11:15;;;;;;;2.60;0.68;;;;;;;11.67;62.82;95231.80;1790865;79;21071;-70
2022/09/19 10:13:51;;;;;;;0.17;0.17;;;;;;;11.70;61.80;95227.28;1806921;79;21078;-68
2022/09/19 10:16:20;;;;;;;0.30;0.20;;;;;;;11.77;58.72;95231.05;1815584;79;20982;-69
2022/09/19 10:18:56;;;;;;;0.47;0.20;;;;;;;11.83;59.00;95241.47;1816134;79;21491;-69
2022/09/19 10:21:24;;;;;;;3.30;1.90;;;;;;;11.86;58.70;95239.63;1813017;79;21057;-69
2022/09/19 10:23:53;;;;;;;7.20;4.28;;;;;;;11.92;56.94;95250.50;1810200;79;20982;-69
2022/09/19 10:26:29;;;;;;;7.35;5.12;;;;;;;11.91;56.96;95242.14;1810231;79;21014;-69
2022/09/19 10:29:00;;;;;;;12.85;8.63;;;;;;;11.93;57.68;95241.64;1809491;79;21009;-69
2022/09/19 10:31:39;;;;;;;1.40;1.10;;;;;;;11.98;57.88;95260.02;1809500;79;21117;-69
2022/09/19 10:34:32;;;;;;;2.40;1.67;;;;;;;12.01;58.38;95251.53;1799939;79;21002;-69
2022/09/19 10:36:54;;;;;;;0.80;0.50;;;;;;;11.87;56.52;95263.84;1805566;79;20987;-69
2022/09/19 10:39:23;;;;;;;2.40;1.22;;;;;;;11.78;57.41;95262.74;1781493;79;21016;-69
2022/09/19 10:41:50;;;;;;;0.75;0.40;;;;;;;11.70;58.92;95259.45;1809992;79;20998;-70
2022/09/19 10:44:23;;;;;;;11.12;6.35;;;;;;;11.70;57.84;95252.85;1810164;79;20994;-69
2022/09/19 10:46:58;;;;;;;2.00;1.60;;;;;;;11.70;58.17;95256.35;1809773;79;21010;-69
2022/09/19 10:49:45;;;;;;;0.40;0.30;;;;;;;11.59;58.60;95258.45;1809803;79;21060;-69
2022/09/19 10:52:30;;;;;;;1.05;0.40;;;;;;;11.65;59.56;95255.62;1810203;79;20994;-69
2022/09/19 10:55:09;;;;;;;0.30;0.20;;;;;;;11.63;59.06;95257.44;1810298;79;21467;-69
2022/09/19 10:57:45;;;;;;;0.20;0.20;;;;;;;11.51;58.89;95265.70;1810021;79;21048;-69
2022/09/19 11:00:30;;;;;;;0.20;0.20;;;;;;;11.48;59.80;95255.22;1809416;79;20982;-69
2022/09/19 11:03:05;;;;;;;0.25;0.20;;;;;;;11.43;59.34;95262.41;1808935;79;21009;-69
2022/09/19 11:05:34;;;;;;;;;;;;;;;11.28;59.46;95259.72;1810315;79;21033;-69
2022/09/19 11:08:03;;;;;;;0.30;0.30;;;;;;;11.24;59.86;95258.95;1810176;79;20114;-69
2022/09/19 11:10:39;;;;;;;0.15;0.15;;;;;;;11.33;61.08;95251.22;1809192;79;21499;-69
2022/09/19 11:13:13;;;;;;;0.20;0.20;;;;;;;11.42;61.18;95251.44;1809951;79;20986;-70
2022/09/19 11:15:55;;;;;;;0.28;0.28;;;;;;;11.53;60.87;95250.67;1810193;79;21062;-69
2022/09/19 11:19:06;;;;;;;0.55;0.20;;;;;;;11.61;59.37;95251.31;1805829;79;20974;-69
2022/09/19 11:21:51;;;;;;;0.10;0.10;;;;;;;11.69;60.11;95245.81;1810135;79;20982;-69
2022/09/19 11:24:49;;;;;;;1.00;0.20;;;;;;;11.63;58.49;95248.64;1810358;79;21014;-69
2022/09/19 11:27:41;;;;;;;0.75;0.10;;;;;;;11.68;59.57;95244.09;1809939;79;21076;-69
2022/09/19 11:30:26;;;;;;;2.00;0.20;;;;;;;11.77;59.83;95236.34;1810004;79;21045;-69
2022/09/19 11:33:35;;;;;;;0.20;0.15;;;;;;;11.87;60.26;95237.87;1810042;79;20997;-69
2022/09/19 11:36:46;;;;;;;1.65;0.35;;;;;;;11.92;59.53;95243.89;1810003;79;21010;-69
2022/09/19 11:39:30;;;;;;;0.33;0.10;;;;;;;11.84;58.92;95228.65;1786783;79;21069;-69
2022/09/19 11:42:25;;;;;;;0.10;0.10;;;;;;;11.85;59.39;95223.33;1787765;79;21005;-69
2022/09/19 11:45:05;;;;;;;0.65;0.20;;;;;;;11.87;57.99;95216.26;1810055;79;21515;-69
2022/09/19 11:47:50;;;;;;;0.15;0.15;;;;;;;11.99;60.25;95235.30;1809978;79;21009;-69
2022/09/19 11:50:39;;;;;;;0.10;0.10;;;;;;;12.02;59.53;95226.84;1809901;79;20990;-69
2022/09/19 11:53:15;;;;;;;0.28;0.10;;;;;;;11.97;58.84;95234.04;1806754;79;21017;-69
2022/09/19 11:56:06;;;;;;;0.17;0.10;;;;;;;11.85;58.67;95234.37;1808382;79;21503;-70
2022/09/19 11:58:54;;;;;;;0.28;0.10;;;;;;;11.73;59.18;95242.19;1809549;79;21013;-70
2022/09/19 12:01:38;;;;;;;0.28;0.20;;;;;;;11.68;60.15;95233.06;1809809;79;20990;-70
2022/09/19 12:04:20;;;;;;;0.10;0.10;;;;;;;11.68;60.67;95242.31;1781234;79;21025;-69
2022/09/19 12:07:26;;;;;;;0.10;0.10;;;;;;;11.54;60.13;95244.50;1810064;79;21190;-69
2022/09/19 12:10:24;;;;;;;0.10;0.10;;;;;;;11.43;61.31;95236.84;1810156;79;21001;-69
2022/09/19 12:13:05;;;;;;;0.25;0.20;;;;;;;11.29;60.97;95239.45;1809878;79;21448;-69
2022/09/19 12:15:37;;;;;;;0.20;0.20;;;;;;;11.28;61.85;95233.31;1809134;79;21476;-69
2022/09/19 12:18:41;;;;;;;0.23;0.20;;;;;;;11.30;62.46;95234.14;1810028;79;20997;-70
2022/09/19 12:21:11;;;;;;;0.10;0.10;;;;;;;11.37;63.53;95240.99;1809990;79;20990;-69
2022/09/19 12:27:12;;;;;;;0.10;0.10;;;;;;;11.28;63.52;95241.69;1810222;79;21018;-70
2022/09/19 12:30:07;;;;;;;0.30;0.15;;;;;;;11.23;62.07;95237.39;1810290;79;20990;-70
2022/09/19 12:33:04;;;;;;;0.10;0.10;;;;;;;11.21;63.42;95232.63;1810218;79;21033;-70
2022/09/19 12:35:35;;;;;;;0.20;0.20;;;;;;;11.30;63.17;95230.64;1809775;79;21535;-69
2022/09/19 12:38:44;;;;;;;0.17;0.10;;;;;;;11.37;63.74;95233.53;1810400;79;21078;-70
2022/09/19 12:41:44;;;;;;;0.10;0.10;;;;;;;11.40;63.42;95229.47;1781301;79;20962;-70